createdAt,value
2019-05-18T13:26:43.888Z,23.69
2019-05-18T13:29:15.651Z,23.66
2019-05-18T13:31:47.721Z,23.80
2019-05-18T13:34:19.477Z,23.65
2019-05-18T13:36:51.257Z,23.46
2019-05-18T13:39:23.030Z,23.22
2019-05-18T13:41:54.794Z,22.91
2019-05-18T13:44:26.553Z,22.73
2019-05-18T13:46:58.321Z,22.62
2019-05-18T13:49:30.085Z,22.44
2019-05-18T13:52:01.853Z,22.26
2019-05-18T13:54:33.622Z,22.22
2019-05-18T13:57:05.400Z,22.26
2019-05-18T13:59:37.156Z,22.34
2019-05-18T14:02:09.337Z,22.35
2019-05-18T14:04:41.104Z,22.38
2019-05-18T14:07:12.878Z,22.48
2019-05-18T14:09:44.638Z,22.53
2019-05-18T14:12:16.404Z,22.45
2019-05-18T14:14:48.169Z,22.46
2019-05-18T14:17:19.942Z,22.35
2019-05-18T14:19:51.705Z,22.11
2019-05-18T14:22:23.475Z,21.82
2019-05-18T14:24:55.249Z,21.55
2019-05-18T14:27:27.007Z,21.28
2019-05-18T14:29:58.769Z,21.04
2019-05-18T14:32:30.543Z,20.76
2019-05-18T14:35:02.311Z,20.53
2019-05-18T14:37:34.221Z,20.43
2019-05-18T14:40:09.969Z,19.69
2019-05-18T14:42:41.738Z,18.54
2019-05-18T14:45:15.102Z,17.45
2019-05-18T14:47:46.868Z,16.71
2019-05-18T14:50:20.249Z,16.21
2019-05-18T14:52:52.020Z,16.12
2019-05-18T14:55:33.409Z,15.89
2019-05-18T14:57:57.567Z,15.52
2019-05-18T15:00:29.336Z,15.39
2019-05-18T15:03:01.176Z,15.32
2019-05-18T15:05:32.942Z,15.19
2019-05-18T15:08:04.725Z,15.30
2019-05-18T15:10:36.484Z,15.17
2019-05-18T15:13:08.329Z,15.47
2019-05-18T15:15:40.099Z,15.57
2019-05-18T15:18:11.878Z,15.37
2019-05-18T15:20:43.642Z,15.49
2019-05-18T15:23:15.419Z,15.52
2019-05-18T15:25:50.695Z,15.50
2019-05-18T15:28:20.669Z,15.59
2019-05-18T15:30:52.440Z,15.63
2019-05-18T15:33:24.223Z,15.64
2019-05-18T15:35:56.047Z,15.82
2019-05-18T15:38:27.820Z,15.70
2019-05-18T15:40:59.591Z,15.75
2019-05-18T15:43:31.379Z,15.80
2019-05-18T15:46:03.134Z,15.84
2019-05-18T15:48:34.950Z,15.80
2019-05-18T15:51:06.687Z,15.77
2019-05-18T15:53:38.464Z,15.78
2019-05-18T15:56:11.475Z,15.83
2019-05-18T15:58:43.292Z,15.77
2019-05-18T16:01:15.013Z,15.72
2019-05-18T16:03:46.794Z,15.66
2019-05-18T16:06:19.125Z,15.56
2019-05-18T16:08:51.192Z,15.56
2019-05-18T16:11:22.961Z,15.40
2019-05-18T16:13:54.732Z,15.57
2019-05-18T16:16:26.777Z,15.72
2019-05-18T16:18:58.561Z,15.76
2019-05-18T16:21:30.325Z,15.63
2019-05-18T16:24:02.175Z,15.73
2019-05-18T16:26:34.050Z,15.84
2019-05-18T16:29:05.826Z,15.95
2019-05-18T16:31:37.603Z,16.04
2019-05-18T16:34:09.948Z,16.07
2019-05-18T16:36:41.720Z,16.11
2019-05-18T16:39:13.494Z,15.96
2019-05-18T16:41:45.254Z,15.95
2019-05-18T16:44:17.072Z,15.83
2019-05-18T16:46:48.798Z,15.67
2019-05-18T16:49:20.574Z,15.62
2019-05-18T16:51:52.392Z,15.64
2019-05-18T16:54:25.036Z,15.45
2019-05-18T16:56:57.069Z,15.48
2019-05-18T16:59:28.884Z,15.39
2019-05-18T17:02:00.692Z,15.34
2019-05-18T17:04:32.476Z,15.31
2019-05-18T17:07:04.247Z,15.41
2019-05-18T17:09:36.021Z,15.46
2019-05-18T17:12:07.789Z,15.40
2019-05-18T17:14:39.569Z,15.42
2019-05-18T17:17:11.336Z,15.44
2019-05-18T17:19:43.130Z,15.25
2019-05-18T17:22:15.868Z,15.08
2019-05-18T17:24:47.641Z,14.93
2019-05-18T17:27:19.410Z,14.98
2019-05-18T17:29:51.452Z,15.05
2019-05-18T17:32:23.226Z,15.04
2019-05-18T17:34:55.007Z,14.90
2019-05-18T17:37:26.772Z,14.76
2019-05-18T17:39:58.551Z,14.60
2019-05-18T17:42:30.322Z,14.36
2019-05-18T17:45:02.109Z,14.32
2019-05-18T17:47:34.947Z,14.31
2019-05-18T17:50:10.025Z,14.22
2019-05-18T17:52:42.039Z,13.86
2019-05-18T17:55:16.375Z,13.74
2019-05-18T17:57:47.583Z,13.74
2019-05-18T18:00:19.797Z,13.61
2019-05-18T18:02:51.567Z,13.58
2019-05-18T18:05:23.341Z,13.72
2019-05-18T18:07:55.725Z,13.70
2019-05-18T18:10:27.655Z,13.52
2019-05-18T18:12:59.365Z,13.52
2019-05-18T18:15:31.219Z,13.54
2019-05-18T18:18:03.058Z,13.61
2019-05-18T18:20:34.829Z,13.54
2019-05-18T18:23:06.667Z,13.67
2019-05-18T18:25:38.520Z,13.70
2019-05-18T18:28:11.526Z,13.60
2019-05-18T18:30:43.427Z,13.54
2019-05-18T18:33:15.333Z,13.53
2019-05-18T18:35:47.240Z,13.59
2019-05-18T18:38:19.219Z,13.60
2019-05-18T18:40:50.991Z,13.56
2019-05-18T18:43:22.832Z,13.58
2019-05-18T18:45:54.668Z,13.67
2019-05-18T18:48:26.673Z,13.76
2019-05-18T18:50:58.533Z,13.84
2019-05-18T18:53:30.436Z,13.84
2019-05-18T18:56:02.220Z,13.81
2019-05-18T18:58:33.973Z,13.92
2019-05-18T19:01:05.755Z,13.78
2019-05-18T19:03:37.591Z,13.84
2019-05-18T19:06:11.034Z,13.75
2019-05-18T19:08:42.799Z,13.65
2019-05-18T19:11:14.641Z,13.59
2019-05-18T19:13:46.473Z,13.45
2019-05-18T19:16:18.255Z,13.44
2019-05-18T19:18:50.027Z,13.45
2019-05-18T19:21:21.852Z,13.44
2019-05-18T19:23:53.673Z,13.42
2019-05-18T19:26:25.494Z,13.45
2019-05-18T19:28:58.246Z,13.42
2019-05-18T19:31:30.077Z,13.41
2019-05-18T19:34:01.862Z,13.48
2019-05-18T19:36:33.720Z,13.47
2019-05-18T19:39:07.600Z,13.35
2019-05-18T19:41:39.944Z,13.40
2019-05-18T19:44:11.696Z,13.30
2019-05-18T19:46:43.607Z,13.26
2019-05-18T19:49:15.523Z,13.30
2019-05-18T19:51:47.425Z,13.28
2019-05-18T19:54:19.430Z,13.13
2019-05-18T19:56:51.681Z,13.11
2019-05-18T19:59:23.556Z,13.13
2019-05-18T20:01:55.470Z,13.09
2019-05-18T20:04:27.231Z,12.93
2019-05-18T20:06:59.010Z,12.86
2019-05-18T20:09:31.625Z,12.89
2019-05-18T20:12:03.469Z,12.90
2019-05-18T20:14:35.228Z,13.01
2019-05-18T20:17:07.340Z,13.03
2019-05-18T20:19:40.479Z,13.09
2019-05-18T20:22:12.377Z,13.09
2019-05-18T20:24:44.145Z,13.14
2019-05-18T20:27:16.059Z,13.03
2019-05-18T20:29:47.826Z,13.13
2019-05-18T20:32:20.816Z,13.14
2019-05-18T20:34:52.585Z,13.16
2019-05-18T20:37:24.549Z,13.10
2019-05-18T20:39:56.279Z,13.10
2019-05-18T20:42:28.053Z,13.09
2019-05-18T20:44:59.820Z,13.13
2019-05-18T20:47:32.018Z,13.11
2019-05-18T20:50:05.126Z,13.10
2019-05-18T20:52:36.905Z,13.11
2019-05-18T20:55:08.872Z,13.13
2019-05-18T20:57:40.648Z,13.04
2019-05-18T21:00:13.135Z,13.08
2019-05-18T21:02:46.649Z,13.09
2019-05-18T21:05:18.568Z,12.92
2019-05-18T21:07:50.439Z,12.98
2019-05-18T21:10:22.302Z,12.99
2019-05-18T21:12:54.084Z,13.03
2019-05-18T21:15:25.845Z,12.98
2019-05-18T21:17:57.612Z,12.99
2019-05-18T21:20:29.377Z,13.00
2019-05-18T21:23:01.235Z,13.01
2019-05-18T21:25:33.872Z,13.00
2019-05-18T21:28:05.768Z,12.97
2019-05-18T21:30:37.858Z,12.94
2019-05-18T21:33:10.985Z,12.96
2019-05-18T21:35:43.031Z,13.06
2019-05-18T21:38:14.843Z,13.16
2019-05-18T21:40:46.609Z,13.19
2019-05-18T21:43:18.388Z,13.21
2019-05-18T21:45:50.279Z,13.27
2019-05-18T21:48:22.260Z,13.30
2019-05-18T21:50:54.100Z,13.32
2019-05-18T21:53:26.026Z,13.38
2019-05-18T21:55:59.073Z,13.39
2019-05-18T21:58:30.988Z,13.41
2019-05-18T22:01:02.831Z,13.41
2019-05-18T22:03:34.789Z,13.42
2019-05-18T22:06:06.599Z,13.38
2019-05-18T22:08:38.384Z,13.35
2019-05-18T22:11:10.136Z,13.36
2019-05-18T22:13:41.992Z,13.41
2019-05-18T22:16:13.755Z,13.39
2019-05-18T22:18:45.532Z,13.40
2019-05-18T22:21:17.298Z,13.36
2019-05-18T22:23:49.076Z,13.20
2019-05-18T22:26:20.837Z,13.15
2019-05-18T22:28:52.614Z,13.10
2019-05-18T22:31:24.460Z,13.03
2019-05-18T22:33:56.232Z,12.98
2019-05-18T22:36:27.997Z,12.90
2019-05-18T22:38:59.770Z,12.77
2019-05-18T22:41:31.539Z,12.77
2019-05-18T22:44:03.324Z,12.70
2019-05-18T22:46:35.097Z,12.67
2019-05-18T22:49:06.926Z,12.52
2019-05-18T22:51:38.722Z,12.59
2019-05-18T22:54:10.965Z,12.63
2019-05-18T22:56:43.696Z,12.65
2019-05-18T22:59:15.640Z,12.62
2019-05-18T23:01:47.405Z,12.58
2019-05-18T23:04:19.180Z,12.53
2019-05-18T23:06:50.953Z,12.62
2019-05-18T23:09:22.734Z,12.59
2019-05-18T23:11:54.512Z,12.59
2019-05-18T23:14:26.549Z,12.63
2019-05-18T23:16:58.310Z,12.55
2019-05-18T23:19:30.083Z,12.54
2019-05-18T23:22:01.864Z,12.54
2019-05-18T23:24:33.635Z,12.53
2019-05-18T23:27:05.414Z,12.40
2019-05-18T23:29:37.191Z,12.39
2019-05-18T23:32:11.140Z,12.32
2019-05-18T23:34:42.905Z,12.17
2019-05-18T23:37:14.692Z,12.13
2019-05-18T23:39:46.445Z,12.09
2019-05-18T23:42:18.213Z,12.05
2019-05-18T23:44:50.249Z,12.04
2019-05-18T23:47:22.020Z,11.94
2019-05-18T23:49:53.790Z,11.93
2019-05-18T23:52:25.633Z,11.89
2019-05-18T23:54:57.406Z,11.78
2019-05-18T23:57:29.182Z,11.76
